sensor_id;sensor_type;location;lat;lon;timestamp;P1;durP1;ratioP1;P2;durP2;ratioP2
70153;SDS011;57519;51.494;-2.626;2023-07-08T00:00:17;8.63;;;4.93;;
70153;SDS011;57519;51.494;-2.626;2023-07-08T00:02:44;8.43;;;4.45;;
70153;SDS011;57519;51.494;-2.626;2023-07-08T00:05:10;10.98;;;4.70;;
70153;SDS011;57519;51.494;-2.626;2023-07-08T00:07:37;9.63;;;4.70;;
70153;SDS011;57519;51.494;-2.626;2023-07-08T00:10:36;10.03;;;5.37;;
70153;SDS011;57519;51.494;-2.626;2023-07-08T00:12:55;10.95;;;5.38;;
70153;SDS011;57519;51.494;-2.626;2023-07-08T00:15:26;10.48;;;4.93;;
70153;SDS011;57519;51.494;-2.626;2023-07-08T00:17:53;12.88;;;4.68;;
70153;SDS011;57519;51.494;-2.626;2023-07-08T00:20:21;9.10;;;4.93;;
70153;SDS011;57519;51.494;-2.626;2023-07-08T00:22:54;7.72;;;4.68;;
70153;SDS011;57519;51.494;-2.626;2023-07-08T00:25:19;9.32;;;4.53;;
70153;SDS011;57519;51.494;-2.626;2023-07-08T00:27:45;8.03;;;4.70;;
70153;SDS011;57519;51.494;-2.626;2023-07-08T00:32:47;8.23;;;4.73;;
70153;SDS011;57519;51.494;-2.626;2023-07-08T00:35:12;10.88;;;4.47;;
70153;SDS011;57519;51.494;-2.626;2023-07-08T00:37:38;8.83;;;4.53;;
70153;SDS011;57519;51.494;-2.626;2023-07-08T00:40:14;9.18;;;4.35;;
70153;SDS011;57519;51.494;-2.626;2023-07-08T00:42:43;10.35;;;5.28;;
70153;SDS011;57519;51.494;-2.626;2023-07-08T00:45:18;10.68;;;4.80;;
70153;SDS011;57519;51.494;-2.626;2023-07-08T00:47:52;8.37;;;4.50;;
70153;SDS011;57519;51.494;-2.626;2023-07-08T00:50:18;10.88;;;5.10;;
70153;SDS011;57519;51.494;-2.626;2023-07-08T00:52:44;9.23;;;4.55;;
70153;SDS011;57519;51.494;-2.626;2023-07-08T00:55:10;8.77;;;4.77;;
70153;SDS011;57519;51.494;-2.626;2023-07-08T00:57:37;10.00;;;4.63;;
70153;SDS011;57519;51.494;-2.626;2023-07-08T01:00:06;8.98;;;4.88;;
70153;SDS011;57519;51.494;-2.626;2023-07-08T01:02:38;10.83;;;4.73;;
70153;SDS011;57519;51.494;-2.626;2023-07-08T01:07:38;9.80;;;4.72;;
70153;SDS011;57519;51.494;-2.626;2023-07-08T01:10:12;12.32;;;4.80;;
70153;SDS011;57519;51.494;-2.626;2023-07-08T01:12:42;9.60;;;5.30;;
70153;SDS011;57519;51.494;-2.626;2023-07-08T01:15:11;8.33;;;4.57;;
70153;SDS011;57519;51.494;-2.626;2023-07-08T01:17:37;8.65;;;4.70;;
70153;SDS011;57519;51.494;-2.626;2023-07-08T01:20:05;10.32;;;4.82;;
70153;SDS011;57519;51.494;-2.626;2023-07-08T01:22:31;7.35;;;4.18;;
70153;SDS011;57519;51.494;-2.626;2023-07-08T01:25:00;8.38;;;4.50;;
70153;SDS011;57519;51.494;-2.626;2023-07-08T01:27:30;9.63;;;4.70;;
70153;SDS011;57519;51.494;-2.626;2023-07-08T01:29:58;9.48;;;4.85;;
70153;SDS011;57519;51.494;-2.626;2023-07-08T01:32:24;11.00;;;4.93;;
70153;SDS011;57519;51.494;-2.626;2023-07-08T01:34:50;10.50;;;5.10;;
70153;SDS011;57519;51.494;-2.626;2023-07-08T01:37:31;10.68;;;4.63;;
70153;SDS011;57519;51.494;-2.626;2023-07-08T01:40:19;10.57;;;5.60;;
70153;SDS011;57519;51.494;-2.626;2023-07-08T01:42:58;12.02;;;4.68;;
70153;SDS011;57519;51.494;-2.626;2023-07-08T01:45:25;9.75;;;5.32;;
70153;SDS011;57519;51.494;-2.626;2023-07-08T01:47:59;10.03;;;4.70;;
70153;SDS011;57519;51.494;-2.626;2023-07-08T01:50:28;9.73;;;4.70;;
70153;SDS011;57519;51.494;-2.626;2023-07-08T01:52:56;12.00;;;5.05;;
70153;SDS011;57519;51.494;-2.626;2023-07-08T01:55:25;9.45;;;4.57;;
70153;SDS011;57519;51.494;-2.626;2023-07-08T01:57:53;11.98;;;5.05;;
70153;SDS011;57519;51.494;-2.626;2023-07-08T02:00:20;8.97;;;4.60;;
70153;SDS011;57519;51.494;-2.626;2023-07-08T02:02:46;11.23;;;4.78;;
70153;SDS011;57519;51.494;-2.626;2023-07-08T02:05:12;11.02;;;5.15;;
70153;SDS011;57519;51.494;-2.626;2023-07-08T02:07:37;11.40;;;4.67;;
70153;SDS011;57519;51.494;-2.626;2023-07-08T02:10:03;8.48;;;4.65;;
70153;SDS011;57519;51.494;-2.626;2023-07-08T02:12:29;9.55;;;5.53;;
70153;SDS011;57519;51.494;-2.626;2023-07-08T02:14:54;12.37;;;4.93;;
70153;SDS011;57519;51.494;-2.626;2023-07-08T02:17:19;8.70;;;4.73;;
70153;SDS011;57519;51.494;-2.626;2023-07-08T02:19:45;10.13;;;4.60;;
70153;SDS011;57519;51.494;-2.626;2023-07-08T02:22:10;8.77;;;4.67;;
70153;SDS011;57519;51.494;-2.626;2023-07-08T02:24:36;9.50;;;5.03;;
70153;SDS011;57519;51.494;-2.626;2023-07-08T02:27:01;7.97;;;4.63;;
70153;SDS011;57519;51.494;-2.626;2023-07-08T02:29:27;10.00;;;5.20;;
70153;SDS011;57519;51.494;-2.626;2023-07-08T02:31:52;9.67;;;4.93;;
70153;SDS011;57519;51.494;-2.626;2023-07-08T02:34:18;9.63;;;5.03;;
70153;SDS011;57519;51.494;-2.626;2023-07-08T02:36:43;9.30;;;4.70;;
70153;SDS011;57519;51.494;-2.626;2023-07-08T02:39:09;8.13;;;5.15;;
70153;SDS011;57519;51.494;-2.626;2023-07-08T02:41:35;9.27;;;4.67;;
70153;SDS011;57519;51.494;-2.626;2023-07-08T02:44:01;8.52;;;4.25;;
70153;SDS011;57519;51.494;-2.626;2023-07-08T02:46:27;10.50;;;5.10;;
70153;SDS011;57519;51.494;-2.626;2023-07-08T02:48:52;9.23;;;5.07;;
70153;SDS011;57519;51.494;-2.626;2023-07-08T02:51:17;11.13;;;4.73;;
70153;SDS011;57519;51.494;-2.626;2023-07-08T02:53:43;10.70;;;4.90;;
70153;SDS011;57519;51.494;-2.626;2023-07-08T02:56:08;8.07;;;4.47;;
70153;SDS011;57519;51.494;-2.626;2023-07-08T02:58:34;11.70;;;5.07;;
70153;SDS011;57519;51.494;-2.626;2023-07-08T03:01:00;12.48;;;4.65;;
70153;SDS011;57519;51.494;-2.626;2023-07-08T03:03:29;10.15;;;5.15;;
70153;SDS011;57519;51.494;-2.626;2023-07-08T03:05:55;9.90;;;5.20;;
70153;SDS011;57519;51.494;-2.626;2023-07-08T03:08:25;8.67;;;4.60;;
70153;SDS011;57519;51.494;-2.626;2023-07-08T03:11:01;9.15;;;4.70;;
70153;SDS011;57519;51.494;-2.626;2023-07-08T03:13:29;10.75;;;4.95;;
70153;SDS011;57519;51.494;-2.626;2023-07-08T03:15:56;6.82;;;4.00;;
70153;SDS011;57519;51.494;-2.626;2023-07-08T03:18:24;10.90;;;5.43;;
70153;SDS011;57519;51.494;-2.626;2023-07-08T03:20:51;9.70;;;5.23;;
70153;SDS011;57519;51.494;-2.626;2023-07-08T03:23:17;10.95;;;5.07;;
70153;SDS011;57519;51.494;-2.626;2023-07-08T03:25:43;10.27;;;5.47;;
70153;SDS011;57519;51.494;-2.626;2023-07-08T03:28:08;8.77;;;4.30;;
70153;SDS011;57519;51.494;-2.626;2023-07-08T03:30:43;8.30;;;4.95;;
70153;SDS011;57519;51.494;-2.626;2023-07-08T03:33:09;11.27;;;5.23;;
70153;SDS011;57519;51.494;-2.626;2023-07-08T03:35:36;9.88;;;5.18;;
70153;SDS011;57519;51.494;-2.626;2023-07-08T03:38:02;9.57;;;5.03;;
70153;SDS011;57519;51.494;-2.626;2023-07-08T03:40:28;11.55;;;4.75;;
70153;SDS011;57519;51.494;-2.626;2023-07-08T03:42:53;12.45;;;5.20;;
70153;SDS011;57519;51.494;-2.626;2023-07-08T03:45:19;10.07;;;5.50;;
70153;SDS011;57519;51.494;-2.626;2023-07-08T03:47:44;8.17;;;5.10;;
70153;SDS011;57519;51.494;-2.626;2023-07-08T03:50:20;10.93;;;5.87;;
70153;SDS011;57519;51.494;-2.626;2023-07-08T03:52:48;8.30;;;4.28;;
70153;SDS011;57519;51.494;-2.626;2023-07-08T03:55:15;9.73;;;5.80;;
70153;SDS011;57519;51.494;-2.626;2023-07-08T03:57:40;9.70;;;5.07;;
70153;SDS011;57519;51.494;-2.626;2023-07-08T04:00:06;9.32;;;5.30;;
70153;SDS011;57519;51.494;-2.626;2023-07-08T04:02:36;10.37;;;5.17;;
70153;SDS011;57519;51.494;-2.626;2023-07-08T04:05:02;12.63;;;4.97;;
70153;SDS011;57519;51.494;-2.626;2023-07-08T04:07:28;8.25;;;4.65;;
70153;SDS011;57519;51.494;-2.626;2023-07-08T04:09:53;15.37;;;5.77;;
70153;SDS011;57519;51.494;-2.626;2023-07-08T04:12:19;11.33;;;4.83;;
70153;SDS011;57519;51.494;-2.626;2023-07-08T04:14:44;8.10;;;5.30;;
70153;SDS011;57519;51.494;-2.626;2023-07-08T04:17:10;11.37;;;5.03;;
70153;SDS011;57519;51.494;-2.626;2023-07-08T04:19:37;9.48;;;5.22;;
70153;SDS011;57519;51.494;-2.626;2023-07-08T04:22:04;9.15;;;5.32;;
70153;SDS011;57519;51.494;-2.626;2023-07-08T04:24:30;10.47;;;5.60;;
70153;SDS011;57519;51.494;-2.626;2023-07-08T04:26:56;9.85;;;5.50;;
70153;SDS011;57519;51.494;-2.626;2023-07-08T04:29:23;10.40;;;5.95;;
70153;SDS011;57519;51.494;-2.626;2023-07-08T04:31:49;9.10;;;5.83;;
70153;SDS011;57519;51.494;-2.626;2023-07-08T04:34:14;9.90;;;5.15;;
70153;SDS011;57519;51.494;-2.626;2023-07-08T04:36:41;16.60;;;5.33;;
70153;SDS011;57519;51.494;-2.626;2023-07-08T04:39:08;13.85;;;5.32;;
70153;SDS011;57519;51.494;-2.626;2023-07-08T04:41:35;9.02;;;5.28;;
70153;SDS011;57519;51.494;-2.626;2023-07-08T04:44:05;10.32;;;5.45;;
70153;SDS011;57519;51.494;-2.626;2023-07-08T04:46:36;9.85;;;5.15;;
70153;SDS011;57519;51.494;-2.626;2023-07-08T04:49:08;11.93;;;4.93;;
70153;SDS011;57519;51.494;-2.626;2023-07-08T04:51:35;12.40;;;5.43;;
70153;SDS011;57519;51.494;-2.626;2023-07-08T04:54:01;9.95;;;5.78;;
70153;SDS011;57519;51.494;-2.626;2023-07-08T04:57:00;10.80;;;4.85;;
70153;SDS011;57519;51.494;-2.626;2023-07-08T04:59:20;7.90;;;4.40;;
70153;SDS011;57519;51.494;-2.626;2023-07-08T05:01:47;8.43;;;4.30;;
70153;SDS011;57519;51.494;-2.626;2023-07-08T05:04:14;7.70;;;4.50;;
70153;SDS011;57519;51.494;-2.626;2023-07-08T05:06:41;9.38;;;4.63;;
70153;SDS011;57519;51.494;-2.626;2023-07-08T05:09:07;8.40;;;4.50;;
70153;SDS011;57519;51.494;-2.626;2023-07-08T05:11:33;9.90;;;4.60;;
70153;SDS011;57519;51.494;-2.626;2023-07-08T05:13:58;8.90;;;4.80;;
70153;SDS011;57519;51.494;-2.626;2023-07-08T05:16:24;7.72;;;3.92;;
70153;SDS011;57519;51.494;-2.626;2023-07-08T05:18:49;9.90;;;4.17;;
70153;SDS011;57519;51.494;-2.626;2023-07-08T05:21:15;7.93;;;3.73;;
70153;SDS011;57519;51.494;-2.626;2023-07-08T05:23:40;8.77;;;4.25;;
70153;SDS011;57519;51.494;-2.626;2023-07-08T05:26:06;11.47;;;4.37;;
70153;SDS011;57519;51.494;-2.626;2023-07-08T05:28:35;8.45;;;4.53;;
70153;SDS011;57519;51.494;-2.626;2023-07-08T05:31:00;11.33;;;4.37;;
70153;SDS011;57519;51.494;-2.626;2023-07-08T05:33:26;8.97;;;4.23;;
70153;SDS011;57519;51.494;-2.626;2023-07-08T05:35:53;7.95;;;3.88;;
70153;SDS011;57519;51.494;-2.626;2023-07-08T05:38:19;7.27;;;4.10;;
70153;SDS011;57519;51.494;-2.626;2023-07-08T05:40:53;7.13;;;4.22;;
70153;SDS011;57519;51.494;-2.626;2023-07-08T05:43:20;10.20;;;4.55;;
70153;SDS011;57519;51.494;-2.626;2023-07-08T05:45:46;8.73;;;4.13;;
70153;SDS011;57519;51.494;-2.626;2023-07-08T05:48:11;8.93;;;4.20;;
70153;SDS011;57519;51.494;-2.626;2023-07-08T05:50:37;7.10;;;4.10;;
70153;SDS011;57519;51.494;-2.626;2023-07-08T05:53:03;7.30;;;3.30;;
70153;SDS011;57519;51.494;-2.626;2023-07-08T05:55:29;7.13;;;3.63;;
70153;SDS011;57519;51.494;-2.626;2023-07-08T05:57:54;7.13;;;3.37;;
70153;SDS011;57519;51.494;-2.626;2023-07-08T06:00:19;7.88;;;3.15;;
70153;SDS011;57519;51.494;-2.626;2023-07-08T06:02:45;6.30;;;3.50;;
70153;SDS011;57519;51.494;-2.626;2023-07-08T06:05:11;8.07;;;3.20;;
70153;SDS011;57519;51.494;-2.626;2023-07-08T06:07:36;6.37;;;3.30;;
70153;SDS011;57519;51.494;-2.626;2023-07-08T06:10:02;7.13;;;3.40;;
70153;SDS011;57519;51.494;-2.626;2023-07-08T06:12:29;7.85;;;3.88;;
70153;SDS011;57519;51.494;-2.626;2023-07-08T06:14:55;8.90;;;3.70;;
70153;SDS011;57519;51.494;-2.626;2023-07-08T06:17:21;7.32;;;3.53;;
70153;SDS011;57519;51.494;-2.626;2023-07-08T06:19:47;8.13;;;3.70;;
70153;SDS011;57519;51.494;-2.626;2023-07-08T06:22:12;8.10;;;3.40;;
70153;SDS011;57519;51.494;-2.626;2023-07-08T06:24:38;8.03;;;3.70;;
70153;SDS011;57519;51.494;-2.626;2023-07-08T06:27:03;6.00;;;3.97;;
70153;SDS011;57519;51.494;-2.626;2023-07-08T06:29:29;7.30;;;3.58;;
70153;SDS011;57519;51.494;-2.626;2023-07-08T06:31:54;7.17;;;3.23;;
70153;SDS011;57519;51.494;-2.626;2023-07-08T06:34:19;9.17;;;4.07;;
70153;SDS011;57519;51.494;-2.626;2023-07-08T06:36:48;5.28;;;3.25;;
70153;SDS011;57519;51.494;-2.626;2023-07-08T06:39:14;7.07;;;3.58;;
70153;SDS011;57519;51.494;-2.626;2023-07-08T06:41:39;11.07;;;3.70;;
70153;SDS011;57519;51.494;-2.626;2023-07-08T06:44:05;7.73;;;3.27;;
70153;SDS011;57519;51.494;-2.626;2023-07-08T06:46:30;6.63;;;3.30;;
70153;SDS011;57519;51.494;-2.626;2023-07-08T06:48:56;8.63;;;3.35;;
70153;SDS011;57519;51.494;-2.626;2023-07-08T06:51:21;9.20;;;3.90;;
70153;SDS011;57519;51.494;-2.626;2023-07-08T06:53:47;9.60;;;4.30;;
70153;SDS011;57519;51.494;-2.626;2023-07-08T06:56:12;9.13;;;3.90;;
70153;SDS011;57519;51.494;-2.626;2023-07-08T06:58:37;10.33;;;3.70;;
70153;SDS011;57519;51.494;-2.626;2023-07-08T07:01:03;12.37;;;4.20;;
70153;SDS011;57519;51.494;-2.626;2023-07-08T07:03:28;7.57;;;3.60;;
70153;SDS011;57519;51.494;-2.626;2023-07-08T07:05:54;9.63;;;4.20;;
70153;SDS011;57519;51.494;-2.626;2023-07-08T07:08:19;10.50;;;3.53;;
70153;SDS011;57519;51.494;-2.626;2023-07-08T07:10:45;8.67;;;3.90;;
70153;SDS011;57519;51.494;-2.626;2023-07-08T07:13:10;10.57;;;4.83;;
70153;SDS011;57519;51.494;-2.626;2023-07-08T07:15:36;7.85;;;3.58;;
70153;SDS011;57519;51.494;-2.626;2023-07-08T07:18:01;10.27;;;4.00;;
70153;SDS011;57519;51.494;-2.626;2023-07-08T07:20:28;9.35;;;3.97;;
70153;SDS011;57519;51.494;-2.626;2023-07-08T07:22:54;11.23;;;3.80;;
70153;SDS011;57519;51.494;-2.626;2023-07-08T07:25:20;9.00;;;3.38;;
70153;SDS011;57519;51.494;-2.626;2023-07-08T07:27:46;7.85;;;4.05;;
70153;SDS011;57519;51.494;-2.626;2023-07-08T07:30:11;8.93;;;4.00;;
70153;SDS011;57519;51.494;-2.626;2023-07-08T07:32:43;9.07;;;4.25;;
70153;SDS011;57519;51.494;-2.626;2023-07-08T07:35:09;8.38;;;4.22;;
70153;SDS011;57519;51.494;-2.626;2023-07-08T07:37:40;10.00;;;3.83;;
70153;SDS011;57519;51.494;-2.626;2023-07-08T07:40:10;8.02;;;3.90;;
70153;SDS011;57519;51.494;-2.626;2023-07-08T07:42:39;7.32;;;3.88;;
70153;SDS011;57519;51.494;-2.626;2023-07-08T07:45:06;8.82;;;3.67;;
70153;SDS011;57519;51.494;-2.626;2023-07-08T07:47:32;5.25;;;3.83;;
70153;SDS011;57519;51.494;-2.626;2023-07-08T07:49:57;9.63;;;4.13;;
70153;SDS011;57519;51.494;-2.626;2023-07-08T07:52:24;9.57;;;3.70;;
70153;SDS011;57519;51.494;-2.626;2023-07-08T07:54:53;8.27;;;3.97;;
70153;SDS011;57519;51.494;-2.626;2023-07-08T07:57:20;10.23;;;3.83;;
70153;SDS011;57519;51.494;-2.626;2023-07-08T07:59:49;9.68;;;3.65;;
70153;SDS011;57519;51.494;-2.626;2023-07-08T08:02:15;8.07;;;3.40;;
70153;SDS011;57519;51.494;-2.626;2023-07-08T08:04:41;7.47;;;4.32;;
70153;SDS011;57519;51.494;-2.626;2023-07-08T08:07:07;7.47;;;3.53;;
70153;SDS011;57519;51.494;-2.626;2023-07-08T08:09:32;9.63;;;3.60;;
70153;SDS011;57519;51.494;-2.626;2023-07-08T08:11:58;7.20;;;3.28;;
70153;SDS011;57519;51.494;-2.626;2023-07-08T08:14:23;9.00;;;3.83;;
70153;SDS011;57519;51.494;-2.626;2023-07-08T08:16:49;7.83;;;2.97;;
70153;SDS011;57519;51.494;-2.626;2023-07-08T08:19:15;9.82;;;3.25;;
70153;SDS011;57519;51.494;-2.626;2023-07-08T08:21:40;7.80;;;3.73;;
70153;SDS011;57519;51.494;-2.626;2023-07-08T08:24:06;9.63;;;3.80;;
70153;SDS011;57519;51.494;-2.626;2023-07-08T08:26:31;9.82;;;3.40;;
70153;SDS011;57519;51.494;-2.626;2023-07-08T08:28:56;9.80;;;4.07;;
70153;SDS011;57519;51.494;-2.626;2023-07-08T08:31:22;8.53;;;4.13;;
70153;SDS011;57519;51.494;-2.626;2023-07-08T08:33:48;6.60;;;3.70;;
70153;SDS011;57519;51.494;-2.626;2023-07-08T08:36:13;10.10;;;4.17;;
70153;SDS011;57519;51.494;-2.626;2023-07-08T08:38:39;8.43;;;4.00;;
70153;SDS011;57519;51.494;-2.626;2023-07-08T08:41:09;8.43;;;3.77;;
70153;SDS011;57519;51.494;-2.626;2023-07-08T08:43:38;8.23;;;4.20;;
70153;SDS011;57519;51.494;-2.626;2023-07-08T08:51:20;8.13;;;4.15;;
70153;SDS011;57519;51.494;-2.626;2023-07-08T08:53:48;8.82;;;3.45;;
70153;SDS011;57519;51.494;-2.626;2023-07-08T08:59:57;7.53;;;3.80;;
70153;SDS011;57519;51.494;-2.626;2023-07-08T09:05:09;8.93;;;3.40;;
70153;SDS011;57519;51.494;-2.626;2023-07-08T09:11:12;8.73;;;4.45;;
70153;SDS011;57519;51.494;-2.626;2023-07-08T09:13:24;7.13;;;4.13;;
70153;SDS011;57519;51.494;-2.626;2023-07-08T09:16:02;7.63;;;3.60;;
70153;SDS011;57519;51.494;-2.626;2023-07-08T09:18:43;8.15;;;4.07;;
70153;SDS011;57519;51.494;-2.626;2023-07-08T09:21:28;7.60;;;4.20;;
70153;SDS011;57519;51.494;-2.626;2023-07-08T09:23:59;7.30;;;3.90;;
70153;SDS011;57519;51.494;-2.626;2023-07-08T09:26:29;8.70;;;3.83;;
70153;SDS011;57519;51.494;-2.626;2023-07-08T09:28:57;11.85;;;4.22;;
70153;SDS011;57519;51.494;-2.626;2023-07-08T09:31:24;7.60;;;3.83;;
70153;SDS011;57519;51.494;-2.626;2023-07-08T09:36:42;5.53;;;3.47;;
70153;SDS011;57519;51.494;-2.626;2023-07-08T09:39:14;9.80;;;4.25;;
70153;SDS011;57519;51.494;-2.626;2023-07-08T09:41:42;9.68;;;4.03;;
70153;SDS011;57519;51.494;-2.626;2023-07-08T09:44:17;7.60;;;3.60;;
70153;SDS011;57519;51.494;-2.626;2023-07-08T09:46:58;7.93;;;3.20;;
70153;SDS011;57519;51.494;-2.626;2023-07-08T09:49:34;6.15;;;3.30;;
70153;SDS011;57519;51.494;-2.626;2023-07-08T09:52:00;8.80;;;3.70;;
70153;SDS011;57519;51.494;-2.626;2023-07-08T09:54:26;9.70;;;4.70;;
70153;SDS011;57519;51.494;-2.626;2023-07-08T09:56:56;9.70;;;3.93;;
70153;SDS011;57519;51.494;-2.626;2023-07-08T09:59:25;8.30;;;2.97;;
70153;SDS011;57519;51.494;-2.626;2023-07-08T10:02:17;8.00;;;3.80;;
70153;SDS011;57519;51.494;-2.626;2023-07-08T10:04:54;8.52;;;3.28;;
70153;SDS011;57519;51.494;-2.626;2023-07-08T10:07:22;7.57;;;3.58;;
70153;SDS011;57519;51.494;-2.626;2023-07-08T10:09:48;7.57;;;3.50;;
70153;SDS011;57519;51.494;-2.626;2023-07-08T10:12:16;8.95;;;3.53;;
70153;SDS011;57519;51.494;-2.626;2023-07-08T10:14:44;6.97;;;3.58;;
70153;SDS011;57519;51.494;-2.626;2023-07-08T10:17:15;9.30;;;3.28;;
70153;SDS011;57519;51.494;-2.626;2023-07-08T10:19:44;9.17;;;2.80;;
70153;SDS011;57519;51.494;-2.626;2023-07-08T10:30:21;7.67;;;4.00;;
70153;SDS011;57519;51.494;-2.626;2023-07-08T10:35:34;9.27;;;3.55;;
70153;SDS011;57519;51.494;-2.626;2023-07-08T10:38:33;7.35;;;3.60;;
70153;SDS011;57519;51.494;-2.626;2023-07-08T10:41:14;7.70;;;3.53;;
70153;SDS011;57519;51.494;-2.626;2023-07-08T10:44:13;10.10;;;3.77;;
70153;SDS011;57519;51.494;-2.626;2023-07-08T10:52:31;9.65;;;3.25;;
70153;SDS011;57519;51.494;-2.626;2023-07-08T10:55:13;8.07;;;3.30;;
70153;SDS011;57519;51.494;-2.626;2023-07-08T11:05:43;10.15;;;4.18;;
70153;SDS011;57519;51.494;-2.626;2023-07-08T11:08:31;9.52;;;3.40;;
70153;SDS011;57519;51.494;-2.626;2023-07-08T11:11:27;8.90;;;4.53;;
70153;SDS011;57519;51.494;-2.626;2023-07-08T11:13:58;10.13;;;3.07;;
70153;SDS011;57519;51.494;-2.626;2023-07-08T11:16:30;8.43;;;3.05;;
70153;SDS011;57519;51.494;-2.626;2023-07-08T11:19:10;8.23;;;3.15;;
70153;SDS011;57519;51.494;-2.626;2023-07-08T11:21:47;8.05;;;2.85;;
70153;SDS011;57519;51.494;-2.626;2023-07-08T11:24:35;9.45;;;3.13;;
70153;SDS011;57519;51.494;-2.626;2023-07-08T11:27:30;6.97;;;3.50;;
70153;SDS011;57519;51.494;-2.626;2023-07-08T11:30:12;8.02;;;3.55;;
70153;SDS011;57519;51.494;-2.626;2023-07-08T11:32:41;10.05;;;3.40;;
70153;SDS011;57519;51.494;-2.626;2023-07-08T11:35:17;7.03;;;2.50;;
70153;SDS011;57519;51.494;-2.626;2023-07-08T11:37:48;8.55;;;3.88;;
70153;SDS011;57519;51.494;-2.626;2023-07-08T11:40:20;8.47;;;3.43;;
70153;SDS011;57519;51.494;-2.626;2023-07-08T11:42:47;8.55;;;3.13;;
70153;SDS011;57519;51.494;-2.626;2023-07-08T11:45:25;10.35;;;3.67;;
70153;SDS011;57519;51.494;-2.626;2023-07-08T11:47:54;12.63;;;3.90;;
70153;SDS011;57519;51.494;-2.626;2023-07-08T11:50:42;8.40;;;3.22;;
70153;SDS011;57519;51.494;-2.626;2023-07-08T11:53:12;9.60;;;2.80;;
70153;SDS011;57519;51.494;-2.626;2023-07-08T11:58:25;8.30;;;3.60;;
70153;SDS011;57519;51.494;-2.626;2023-07-08T12:03:29;10.02;;;3.30;;
70153;SDS011;57519;51.494;-2.626;2023-07-08T12:05:59;12.18;;;4.55;;
70153;SDS011;57519;51.494;-2.626;2023-07-08T12:08:34;11.13;;;3.60;;
70153;SDS011;57519;51.494;-2.626;2023-07-08T12:11:03;13.30;;;3.90;;
70153;SDS011;57519;51.494;-2.626;2023-07-08T12:13:29;7.68;;;3.70;;
70153;SDS011;57519;51.494;-2.626;2023-07-08T12:15:55;13.70;;;3.70;;
70153;SDS011;57519;51.494;-2.626;2023-07-08T12:18:21;8.03;;;4.07;;
70153;SDS011;57519;51.494;-2.626;2023-07-08T12:20:54;9.52;;;4.45;;
70153;SDS011;57519;51.494;-2.626;2023-07-08T12:23:22;9.23;;;3.65;;
70153;SDS011;57519;51.494;-2.626;2023-07-08T12:25:49;10.43;;;4.80;;
70153;SDS011;57519;51.494;-2.626;2023-07-08T12:28:15;9.23;;;4.07;;
70153;SDS011;57519;51.494;-2.626;2023-07-08T12:30:42;9.45;;;4.47;;
70153;SDS011;57519;51.494;-2.626;2023-07-08T12:33:19;11.17;;;3.90;;
70153;SDS011;57519;51.494;-2.626;2023-07-08T12:35:50;15.13;;;4.13;;
70153;SDS011;57519;51.494;-2.626;2023-07-08T12:41:10;12.40;;;4.53;;
70153;SDS011;57519;51.494;-2.626;2023-07-08T12:43:56;12.40;;;4.57;;
70153;SDS011;57519;51.494;-2.626;2023-07-08T12:46:22;13.13;;;5.40;;
70153;SDS011;57519;51.494;-2.626;2023-07-08T12:48:49;13.68;;;5.07;;
70153;SDS011;57519;51.494;-2.626;2023-07-08T12:51:17;20.03;;;6.10;;
70153;SDS011;57519;51.494;-2.626;2023-07-08T12:53:46;11.50;;;4.65;;
70153;SDS011;57519;51.494;-2.626;2023-07-08T12:56:11;12.23;;;5.20;;
70153;SDS011;57519;51.494;-2.626;2023-07-08T12:58:38;11.70;;;5.00;;
70153;SDS011;57519;51.494;-2.626;2023-07-08T13:01:06;11.70;;;4.90;;
70153;SDS011;57519;51.494;-2.626;2023-07-08T13:03:34;12.40;;;5.53;;
70153;SDS011;57519;51.494;-2.626;2023-07-08T13:06:05;9.30;;;4.65;;
70153;SDS011;57519;51.494;-2.626;2023-07-08T13:08:34;11.43;;;4.90;;
70153;SDS011;57519;51.494;-2.626;2023-07-08T13:11:02;9.80;;;4.60;;
70153;SDS011;57519;51.494;-2.626;2023-07-08T13:13:32;9.55;;;4.22;;
70153;SDS011;57519;51.494;-2.626;2023-07-08T13:16:01;9.10;;;4.53;;
70153;SDS011;57519;51.494;-2.626;2023-07-08T13:18:34;10.13;;;4.85;;
70153;SDS011;57519;51.494;-2.626;2023-07-08T13:21:01;12.27;;;4.38;;
70153;SDS011;57519;51.494;-2.626;2023-07-08T13:23:28;7.40;;;4.13;;
70153;SDS011;57519;51.494;-2.626;2023-07-08T13:25:54;9.30;;;4.18;;
70153;SDS011;57519;51.494;-2.626;2023-07-08T13:31:02;11.50;;;4.45;;
70153;SDS011;57519;51.494;-2.626;2023-07-08T13:33:38;7.22;;;3.75;;
70153;SDS011;57519;51.494;-2.626;2023-07-08T13:36:09;9.70;;;3.70;;
70153;SDS011;57519;51.494;-2.626;2023-07-08T13:38:35;7.10;;;3.33;;
70153;SDS011;57519;51.494;-2.626;2023-07-08T13:41:03;8.07;;;3.67;;
70153;SDS011;57519;51.494;-2.626;2023-07-08T13:43:33;7.60;;;4.25;;
70153;SDS011;57519;51.494;-2.626;2023-07-08T13:46:00;10.02;;;3.80;;
70153;SDS011;57519;51.494;-2.626;2023-07-08T13:48:27;6.60;;;3.60;;
70153;SDS011;57519;51.494;-2.626;2023-07-08T13:51:17;7.75;;;4.10;;
70153;SDS011;57519;51.494;-2.626;2023-07-08T13:53:47;9.23;;;4.25;;
70153;SDS011;57519;51.494;-2.626;2023-07-08T13:58:45;7.10;;;3.58;;
70153;SDS011;57519;51.494;-2.626;2023-07-08T14:01:18;6.77;;;3.47;;
70153;SDS011;57519;51.494;-2.626;2023-07-08T14:03:43;9.38;;;3.78;;
70153;SDS011;57519;51.494;-2.626;2023-07-08T14:06:16;5.90;;;3.70;;
70153;SDS011;57519;51.494;-2.626;2023-07-08T14:08:43;8.18;;;3.03;;
70153;SDS011;57519;51.494;-2.626;2023-07-08T14:11:08;4.53;;;2.47;;
70153;SDS011;57519;51.494;-2.626;2023-07-08T14:13:34;5.77;;;2.87;;
70153;SDS011;57519;51.494;-2.626;2023-07-08T14:16:00;7.40;;;2.90;;
70153;SDS011;57519;51.494;-2.626;2023-07-08T14:18:31;5.72;;;3.20;;
70153;SDS011;57519;51.494;-2.626;2023-07-08T14:20:57;6.93;;;2.83;;
70153;SDS011;57519;51.494;-2.626;2023-07-08T14:23:23;8.43;;;3.30;;
70153;SDS011;57519;51.494;-2.626;2023-07-08T14:25:49;5.57;;;2.65;;
70153;SDS011;57519;51.494;-2.626;2023-07-08T14:28:14;5.53;;;2.50;;
70153;SDS011;57519;51.494;-2.626;2023-07-08T14:30:47;4.87;;;2.20;;
70153;SDS011;57519;51.494;-2.626;2023-07-08T14:33:13;5.55;;;2.80;;
70153;SDS011;57519;51.494;-2.626;2023-07-08T14:35:39;4.40;;;2.33;;
70153;SDS011;57519;51.494;-2.626;2023-07-08T14:38:14;5.13;;;3.00;;
70153;SDS011;57519;51.494;-2.626;2023-07-08T14:40:40;4.88;;;2.70;;
70153;SDS011;57519;51.494;-2.626;2023-07-08T14:43:10;5.45;;;2.58;;
70153;SDS011;57519;51.494;-2.626;2023-07-08T14:45:42;3.75;;;2.47;;
70153;SDS011;57519;51.494;-2.626;2023-07-08T14:48:11;5.13;;;2.78;;
70153;SDS011;57519;51.494;-2.626;2023-07-08T14:50:38;7.50;;;2.30;;
70153;SDS011;57519;51.494;-2.626;2023-07-08T14:53:04;6.47;;;2.90;;
70153;SDS011;57519;51.494;-2.626;2023-07-08T14:55:29;5.60;;;2.67;;
70153;SDS011;57519;51.494;-2.626;2023-07-08T14:57:55;6.75;;;2.85;;
70153;SDS011;57519;51.494;-2.626;2023-07-08T15:00:21;7.03;;;3.38;;
70153;SDS011;57519;51.494;-2.626;2023-07-08T15:02:48;4.87;;;2.60;;
70153;SDS011;57519;51.494;-2.626;2023-07-08T15:05:15;6.20;;;3.03;;
70153;SDS011;57519;51.494;-2.626;2023-07-08T15:07:41;9.98;;;3.72;;
70153;SDS011;57519;51.494;-2.626;2023-07-08T15:10:07;8.45;;;3.20;;
70153;SDS011;57519;51.494;-2.626;2023-07-08T15:12:33;7.47;;;3.90;;
70153;SDS011;57519;51.494;-2.626;2023-07-08T15:14:58;7.80;;;3.80;;
70153;SDS011;57519;51.494;-2.626;2023-07-08T15:17:24;8.57;;;4.45;;
70153;SDS011;57519;51.494;-2.626;2023-07-08T15:19:50;8.03;;;4.20;;
70153;SDS011;57519;51.494;-2.626;2023-07-08T15:22:16;10.43;;;4.07;;
70153;SDS011;57519;51.494;-2.626;2023-07-08T15:24:41;8.23;;;4.60;;
70153;SDS011;57519;51.494;-2.626;2023-07-08T15:27:09;6.60;;;4.13;;
70153;SDS011;57519;51.494;-2.626;2023-07-08T15:29:37;7.87;;;3.93;;
70153;SDS011;57519;51.494;-2.626;2023-07-08T15:32:02;11.27;;;4.05;;
70153;SDS011;57519;51.494;-2.626;2023-07-08T15:34:28;10.97;;;4.40;;
70153;SDS011;57519;51.494;-2.626;2023-07-08T15:36:53;7.70;;;4.03;;
70153;SDS011;57519;51.494;-2.626;2023-07-08T15:39:19;8.40;;;4.40;;